createdAt,value
2018-07-26T00:00:05.099Z,59.00
2018-07-26T00:02:33.294Z,59.20
2018-07-26T00:05:01.480Z,60.40
2018-07-26T00:07:29.675Z,60.20
2018-07-26T00:09:57.899Z,61.50
2018-07-26T00:12:26.097Z,61.00
2018-07-26T00:17:22.404Z,62.10
2018-07-26T00:19:50.584Z,61.70
2018-07-26T00:22:18.780Z,62.00
2018-07-26T00:24:46.986Z,62.40
2018-07-26T00:27:15.188Z,62.80
2018-07-26T00:29:43.356Z,63.30
2018-07-26T00:32:11.548Z,63.70
2018-07-26T00:34:39.728Z,64.20
2018-07-26T00:37:07.958Z,64.80
2018-07-26T00:39:36.196Z,65.10
2018-07-26T00:42:04.378Z,65.60
2018-07-26T00:44:32.570Z,65.80
2018-07-26T00:47:00.898Z,65.90
2018-07-26T00:49:29.120Z,66.30
2018-07-26T00:51:57.308Z,66.50
2018-07-26T00:54:25.516Z,66.70
2018-07-26T00:56:53.704Z,67.00
2018-07-26T00:59:21.910Z,67.20
2018-07-26T01:01:50.109Z,67.50
2018-07-26T01:04:18.363Z,67.60
2018-07-26T01:06:46.565Z,68.00
2018-07-26T01:09:14.760Z,69.00
2018-07-26T01:11:42.926Z,68.70
2018-07-26T01:14:11.222Z,69.10
2018-07-26T01:16:39.404Z,69.50
2018-07-26T01:19:07.606Z,69.70
2018-07-26T01:21:35.833Z,69.90
2018-07-26T01:24:04.068Z,70.40
2018-07-26T01:26:32.264Z,70.60
2018-07-26T01:29:00.437Z,71.00
2018-07-26T01:31:28.630Z,71.40
2018-07-26T01:33:56.818Z,71.80
2018-07-26T01:36:25.018Z,71.80
2018-07-26T01:38:53.294Z,71.90
2018-07-26T01:41:21.499Z,72.00
2018-07-26T01:44:01.058Z,72.30
2018-07-26T01:46:29.246Z,72.70
2018-07-26T01:48:57.456Z,73.70
2018-07-26T01:51:25.640Z,74.30
2018-07-26T01:53:53.826Z,74.60
2018-07-26T01:58:50.114Z,74.70
2018-07-26T02:01:18.334Z,74.90
2018-07-26T02:03:46.525Z,75.00
2018-07-26T02:06:14.715Z,75.10
2018-07-26T02:08:42.978Z,75.20
2018-07-26T02:11:11.213Z,75.40
2018-07-26T02:13:39.428Z,75.70
2018-07-26T02:16:07.611Z,75.80
2018-07-26T02:18:35.837Z,75.90
2018-07-26T02:21:04.033Z,75.90
2018-07-26T02:23:32.218Z,76.10
2018-07-26T02:26:00.418Z,76.10
2018-07-26T02:30:56.695Z,76.20
2018-07-26T02:33:24.835Z,76.20
2018-07-26T02:35:53.061Z,76.40
2018-07-26T02:38:21.311Z,76.40
2018-07-26T02:40:49.515Z,76.20
2018-07-26T02:43:17.708Z,76.20
2018-07-26T02:45:45.876Z,76.10
2018-07-26T02:48:14.131Z,76.20
2018-07-26T02:50:42.333Z,76.40
2018-07-26T02:53:10.559Z,76.50
2018-07-26T02:55:38.977Z,76.70
2018-07-26T02:58:07.166Z,77.00
2018-07-26T03:00:35.367Z,77.00
2018-07-26T03:05:31.552Z,77.20
2018-07-26T03:07:59.857Z,77.20
2018-07-26T03:10:28.077Z,77.40
2018-07-26T03:12:56.259Z,77.50
2018-07-26T03:15:24.526Z,77.50
2018-07-26T03:17:52.776Z,77.80
2018-07-26T03:20:20.969Z,78.20
2018-07-26T03:22:49.183Z,78.50
2018-07-26T03:25:17.383Z,78.60
2018-07-26T03:27:45.578Z,78.70
2018-07-26T03:30:13.830Z,78.80
2018-07-26T03:32:42.441Z,78.80
2018-07-26T03:35:10.628Z,78.70
2018-07-26T03:37:38.820Z,78.90
2018-07-26T03:40:07.111Z,79.10
2018-07-26T03:42:35.301Z,79.20
2018-07-26T03:45:03.521Z,79.30
2018-07-26T03:47:31.713Z,79.50
2018-07-26T03:49:59.914Z,80.00
2018-07-26T03:52:28.110Z,80.50
2018-07-26T03:54:56.295Z,80.90
2018-07-26T03:57:24.500Z,81.40
2018-07-26T03:59:52.680Z,81.70
2018-07-26T04:02:20.942Z,81.90
2018-07-26T04:04:49.263Z,82.90
2018-07-26T04:07:17.451Z,82.30
2018-07-26T04:09:45.645Z,82.40
2018-07-26T04:12:13.854Z,82.60
2018-07-26T04:14:42.115Z,82.70
2018-07-26T04:17:10.309Z,82.70
2018-07-26T04:19:38.511Z,82.70
2018-07-26T04:22:06.743Z,82.70
2018-07-26T04:24:34.905Z,82.70
2018-07-26T04:27:03.120Z,82.80
2018-07-26T04:29:31.314Z,82.90
2018-07-26T04:31:59.568Z,82.90
2018-07-26T04:34:27.726Z,83.20
2018-07-26T04:36:55.915Z,83.10
2018-07-26T04:39:24.109Z,83.10
2018-07-26T04:41:52.337Z,83.20
2018-07-26T04:44:20.568Z,83.50
2018-07-26T04:46:48.774Z,83.60
2018-07-26T04:49:16.961Z,83.60
2018-07-26T04:51:45.155Z,84.00
2018-07-26T04:56:41.543Z,84.20
2018-07-26T04:59:09.736Z,84.20
2018-07-26T05:01:41.362Z,84.00
2018-07-26T05:04:09.674Z,84.10
2018-07-26T05:06:37.865Z,83.90
2018-07-26T05:09:08.012Z,83.60
2018-07-26T05:11:36.246Z,83.20
2018-07-26T05:14:04.436Z,83.10
2018-07-26T05:16:32.630Z,83.70
2018-07-26T05:19:00.879Z,82.50
2018-07-26T05:21:29.020Z,82.40
2018-07-26T05:23:57.253Z,82.20
2018-07-26T05:26:25.421Z,82.10
2018-07-26T05:28:53.654Z,81.90
2018-07-26T05:31:21.845Z,81.60
2018-07-26T05:33:50.084Z,81.40
2018-07-26T05:36:18.346Z,81.30
2018-07-26T05:38:46.738Z,81.10
2018-07-26T05:41:14.964Z,80.80
2018-07-26T05:43:43.174Z,80.10
2018-07-26T05:46:11.384Z,79.80
2018-07-26T05:48:39.594Z,79.10
2018-07-26T05:51:07.828Z,79.20
2018-07-26T05:53:36.068Z,77.70
2018-07-26T05:56:04.282Z,77.20
2018-07-26T05:58:32.492Z,76.60
2018-07-26T06:01:00.681Z,76.10
2018-07-26T06:03:29.228Z,75.80
2018-07-26T06:05:57.520Z,75.30
2018-07-26T06:08:25.771Z,74.90
2018-07-26T06:10:53.988Z,74.40
2018-07-26T06:13:22.220Z,74.10
2018-07-26T06:15:50.424Z,73.70
2018-07-26T06:18:18.924Z,73.60
2018-07-26T06:20:47.091Z,73.20
2018-07-26T06:23:15.308Z,72.70
2018-07-26T06:25:43.487Z,72.40
2018-07-26T06:28:11.867Z,71.90
2018-07-26T06:30:39.998Z,71.50
2018-07-26T06:35:36.322Z,70.50
2018-07-26T06:38:04.587Z,69.90
2018-07-26T06:40:32.781Z,69.10
2018-07-26T06:43:00.976Z,68.90
2018-07-26T06:45:29.182Z,68.90
2018-07-26T06:47:57.620Z,68.50
2018-07-26T06:50:25.866Z,67.80
2018-07-26T06:52:54.118Z,66.70
2018-07-26T06:57:50.489Z,66.70
2018-07-26T07:00:18.686Z,66.60
2018-07-26T07:02:46.884Z,66.00
2018-07-26T07:05:15.078Z,65.60
2018-07-26T07:07:43.275Z,65.50
2018-07-26T07:10:11.503Z,65.10
2018-07-26T07:12:39.692Z,64.50
2018-07-26T07:15:08.194Z,63.20
2018-07-26T07:17:36.388Z,62.70
2018-07-26T07:20:05.290Z,62.30
2018-07-26T07:22:33.478Z,62.30
2018-07-26T07:25:01.693Z,62.20
2018-07-26T07:27:29.872Z,61.10
2018-07-26T07:29:58.082Z,60.80
2018-07-26T07:32:26.290Z,60.30
2018-07-26T07:34:54.470Z,59.80
2018-07-26T07:37:22.699Z,59.40
2018-07-26T07:39:50.903Z,59.20
2018-07-26T07:42:19.139Z,58.90
2018-07-26T07:44:47.323Z,59.10
2018-07-26T07:47:15.563Z,58.90
2018-07-26T07:49:43.763Z,58.30
2018-07-26T07:54:39.934Z,57.40
2018-07-26T07:59:36.109Z,57.20
2018-07-26T08:02:04.273Z,57.00
2018-07-26T08:04:32.458Z,56.80
2018-07-26T08:07:00.725Z,55.10
2018-07-26T08:09:28.954Z,54.90
2018-07-26T08:11:57.155Z,55.10
2018-07-26T08:14:25.362Z,55.20
2018-07-26T08:16:53.579Z,55.50
2018-07-26T08:19:21.757Z,54.80
2018-07-26T08:21:49.928Z,54.20
2018-07-26T08:24:18.126Z,53.70
2018-07-26T08:26:46.335Z,53.60
2018-07-26T08:29:14.636Z,53.40
2018-07-26T08:31:42.839Z,52.90
2018-07-26T08:34:11.116Z,52.70
2018-07-26T08:36:39.319Z,52.50
2018-07-26T08:39:09.132Z,52.10
2018-07-26T08:41:37.330Z,51.90
2018-07-26T08:44:05.862Z,51.10
2018-07-26T08:46:34.110Z,50.30
2018-07-26T08:49:02.320Z,50.60
2018-07-26T08:51:30.505Z,49.60
2018-07-26T08:53:58.698Z,49.40
2018-07-26T08:56:26.898Z,49.40
2018-07-26T08:58:55.119Z,49.50
2018-07-26T09:01:23.322Z,48.20
2018-07-26T09:03:51.549Z,47.80
2018-07-26T09:06:19.746Z,47.30
2018-07-26T09:08:47.993Z,47.30
2018-07-26T09:11:16.212Z,46.80
2018-07-26T09:13:44.419Z,45.70
2018-07-26T09:16:12.621Z,44.90
2018-07-26T09:18:40.877Z,45.00
2018-07-26T09:21:09.052Z,45.00
2018-07-26T09:23:37.255Z,44.90
2018-07-26T09:26:05.544Z,44.70
2018-07-26T09:28:33.798Z,44.50
2018-07-26T09:33:29.961Z,43.40
2018-07-26T09:35:58.167Z,44.40
2018-07-26T09:38:26.365Z,43.90
2018-07-26T09:40:54.576Z,43.00
2018-07-26T09:43:22.751Z,42.60
2018-07-26T09:45:50.951Z,43.10
2018-07-26T09:48:19.224Z,41.70
2018-07-26T09:50:47.494Z,41.00
2018-07-26T09:53:15.765Z,40.00
2018-07-26T09:55:43.976Z,38.40
2018-07-26T09:58:12.585Z,36.70
2018-07-26T10:00:46.071Z,35.20
2018-07-26T10:03:14.637Z,35.40
2018-07-26T10:05:42.933Z,34.80
2018-07-26T10:08:11.171Z,34.30
2018-07-26T10:10:39.445Z,32.60
2018-07-26T10:13:07.623Z,31.60
2018-07-26T10:15:35.810Z,32.40
2018-07-26T10:18:03.991Z,31.60
2018-07-26T10:20:32.199Z,30.50
2018-07-26T10:23:00.398Z,31.10
2018-07-26T10:25:28.647Z,30.20
2018-07-26T10:27:57.205Z,29.90
2018-07-26T10:30:25.529Z,29.90
2018-07-26T10:32:54.033Z,30.00
2018-07-26T10:35:22.497Z,29.90
2018-07-26T10:37:50.931Z,29.40
2018-07-26T10:40:19.145Z,29.30
2018-07-26T10:42:47.331Z,29.00
2018-07-26T10:45:15.565Z,28.50
2018-07-26T10:47:43.780Z,27.80
2018-07-26T10:50:11.999Z,27.90
2018-07-26T10:52:40.523Z,27.70
2018-07-26T10:55:08.955Z,27.60
2018-07-26T10:57:38.179Z,27.30
2018-07-26T11:00:07.669Z,26.90
2018-07-26T11:05:04.773Z,26.80
2018-07-26T11:10:00.937Z,26.30
2018-07-26T11:12:29.156Z,26.60
2018-07-26T11:15:35.692Z,26.80
2018-07-26T11:18:04.227Z,26.70
2018-07-26T11:23:00.637Z,26.60
2018-07-26T11:25:28.894Z,26.30
2018-07-26T11:27:57.508Z,26.30
2018-07-26T11:30:25.781Z,26.20
2018-07-26T11:32:53.965Z,26.00
2018-07-26T11:35:22.325Z,25.60
2018-07-26T11:37:50.565Z,25.40
2018-07-26T11:40:18.732Z,24.90
2018-07-26T11:42:46.931Z,25.00
2018-07-26T11:45:15.123Z,25.00
2018-07-26T11:47:43.321Z,25.10
2018-07-26T11:50:12.073Z,25.30
2018-07-26T11:52:40.392Z,24.90
2018-07-26T11:55:08.589Z,25.30
2018-07-26T11:57:36.795Z,25.60
2018-07-26T12:00:06.030Z,26.00
2018-07-26T12:02:34.324Z,26.10
2018-07-26T12:05:02.452Z,25.40
2018-07-26T12:07:30.625Z,24.60
2018-07-26T12:09:58.833Z,24.20
2018-07-26T12:12:27.028Z,23.30
2018-07-26T12:14:55.394Z,23.80
2018-07-26T12:17:23.641Z,23.30
2018-07-26T12:19:51.853Z,23.70
2018-07-26T12:22:20.025Z,23.90
2018-07-26T12:24:48.241Z,24.10
2018-07-26T12:27:16.531Z,23.50
2018-07-26T12:29:44.743Z,24.00
2018-07-26T12:32:12.966Z,24.00
2018-07-26T12:34:41.191Z,23.70
2018-07-26T12:37:09.425Z,23.20
2018-07-26T12:39:37.613Z,22.30
2018-07-26T12:42:06.659Z,22.30
2018-07-26T12:44:34.837Z,22.90
2018-07-26T12:47:03.027Z,23.00
2018-07-26T12:49:31.230Z,23.20
2018-07-26T12:51:59.415Z,23.10
2018-07-26T12:54:27.636Z,22.40
2018-07-26T12:56:55.814Z,21.80
2018-07-26T12:59:24.055Z,22.30
2018-07-26T13:01:52.289Z,22.80
2018-07-26T13:04:21.459Z,22.70
2018-07-26T13:06:49.644Z,22.30
2018-07-26T13:09:17.843Z,21.80
2018-07-26T13:11:46.071Z,22.20
2018-07-26T13:14:14.278Z,22.50
2018-07-26T13:16:42.468Z,22.40
2018-07-26T13:19:10.687Z,22.60
2018-07-26T13:21:38.909Z,23.10
2018-07-26T13:24:07.177Z,23.00
2018-07-26T13:26:35.399Z,23.30
2018-07-26T13:29:03.646Z,23.10
2018-07-26T13:31:31.877Z,22.50
2018-07-26T13:34:00.090Z,22.70
2018-07-26T13:36:28.295Z,22.20
2018-07-26T13:38:56.471Z,22.20
2018-07-26T13:41:24.692Z,22.70
2018-07-26T13:43:53.021Z,23.10
2018-07-26T13:46:21.365Z,23.10
2018-07-26T13:48:49.584Z,22.80
2018-07-26T13:51:17.768Z,22.50
2018-07-26T13:53:45.959Z,22.50
2018-07-26T13:56:14.150Z,22.80
2018-07-26T13:58:42.417Z,23.20
2018-07-26T14:01:10.647Z,22.30
2018-07-26T14:03:39.286Z,22.90
2018-07-26T14:06:07.522Z,21.80
2018-07-26T14:08:35.737Z,21.90
2018-07-26T14:11:03.936Z,22.20
2018-07-26T14:13:32.208Z,22.20
2018-07-26T14:16:00.558Z,21.30
2018-07-26T14:18:28.659Z,21.10
2018-07-26T14:20:56.874Z,21.00
2018-07-26T14:23:30.415Z,21.40
2018-07-26T14:25:58.599Z,21.60
2018-07-26T14:28:26.868Z,22.10
2018-07-26T14:30:55.088Z,22.50
2018-07-26T14:33:23.264Z,21.80
2018-07-26T14:35:51.476Z,21.60
2018-07-26T14:38:19.841Z,21.90
2018-07-26T14:40:47.990Z,22.60
2018-07-26T14:43:16.271Z,22.30
2018-07-26T14:45:44.526Z,23.00
2018-07-26T14:48:12.802Z,23.80
2018-07-26T14:50:41.000Z,23.70
2018-07-26T14:53:09.280Z,23.80
2018-07-26T14:55:37.548Z,24.20
2018-07-26T14:58:05.790Z,24.60
2018-07-26T15:00:34.012Z,24.80
2018-07-26T15:03:02.204Z,25.40
2018-07-26T15:05:30.449Z,25.50
2018-07-26T15:07:58.918Z,26.00
2018-07-26T15:10:27.081Z,26.10
2018-07-26T15:12:55.256Z,26.80
2018-07-26T15:15:23.476Z,27.00
2018-07-26T15:17:51.752Z,26.50
2018-07-26T15:20:19.988Z,26.40
2018-07-26T15:22:48.192Z,26.50
2018-07-26T15:27:48.728Z,26.50
2018-07-26T15:30:16.930Z,26.40
2018-07-26T15:32:45.129Z,26.50
2018-07-26T15:35:13.323Z,27.20
2018-07-26T15:37:41.627Z,27.00
2018-07-26T15:40:09.780Z,26.70
2018-07-26T15:42:37.960Z,26.70
2018-07-26T15:45:06.444Z,27.40
2018-07-26T15:47:34.776Z,27.70
2018-07-26T15:50:02.981Z,27.50
2018-07-26T15:52:31.239Z,27.50
2018-07-26T15:54:59.752Z,27.90
2018-07-26T15:57:28.088Z,28.00
2018-07-26T15:59:56.607Z,27.70
2018-07-26T16:02:24.854Z,27.40
2018-07-26T16:04:53.063Z,27.20
2018-07-26T16:07:21.826Z,27.40
2018-07-26T16:09:50.282Z,27.50
2018-07-26T16:12:18.525Z,27.60
2018-07-26T16:14:46.714Z,27.50
2018-07-26T16:17:14.924Z,27.20
2018-07-26T16:19:43.160Z,27.40
2018-07-26T16:22:11.463Z,27.90
2018-07-26T16:24:39.642Z,27.90
2018-07-26T16:27:07.890Z,28.20
2018-07-26T16:29:36.087Z,28.20
2018-07-26T16:32:04.364Z,28.40
2018-07-26T16:34:32.549Z,28.70
2018-07-26T16:37:00.773Z,28.80
2018-07-26T16:39:28.994Z,28.90
2018-07-26T16:41:57.160Z,28.90
2018-07-26T16:44:25.414Z,29.00
2018-07-26T16:46:53.655Z,29.10
2018-07-26T16:49:21.876Z,29.20
2018-07-26T16:51:50.052Z,29.40
2018-07-26T16:54:18.274Z,29.50
2018-07-26T16:56:46.549Z,29.80
2018-07-26T16:59:14.712Z,29.80
2018-07-26T17:01:46.001Z,30.20
2018-07-26T17:04:14.263Z,29.60
2018-07-26T17:06:42.483Z,29.20
2018-07-26T17:09:11.448Z,29.40
2018-07-26T17:11:39.969Z,29.20
2018-07-26T17:14:08.170Z,29.20
2018-07-26T17:16:36.373Z,29.30
2018-07-26T17:19:04.687Z,29.70
2018-07-26T17:21:33.033Z,29.40
2018-07-26T17:24:01.242Z,29.50
2018-07-26T17:26:29.427Z,29.30
2018-07-26T17:28:57.653Z,29.40
2018-07-26T17:31:25.833Z,29.30
2018-07-26T17:33:54.287Z,29.40
2018-07-26T17:36:22.485Z,29.80
2018-07-26T17:38:50.704Z,30.40
2018-07-26T17:41:18.942Z,30.90
2018-07-26T17:43:47.308Z,31.20
2018-07-26T17:46:15.510Z,31.60
2018-07-26T17:48:43.811Z,31.90
2018-07-26T17:51:12.045Z,32.20
2018-07-26T17:53:40.356Z,32.60
2018-07-26T17:56:08.813Z,33.00
2018-07-26T17:58:37.034Z,33.30
2018-07-26T18:01:05.275Z,33.40
2018-07-26T18:03:33.658Z,33.60
2018-07-26T18:06:02.012Z,34.10
2018-07-26T18:08:30.198Z,34.50
2018-07-26T18:10:58.408Z,34.50
2018-07-26T18:13:26.602Z,34.80
2018-07-26T18:15:54.872Z,34.80
2018-07-26T18:18:23.098Z,34.80
2018-07-26T18:20:51.301Z,34.90
2018-07-26T18:23:19.492Z,35.00
2018-07-26T18:25:47.688Z,35.20
2018-07-26T18:28:16.075Z,35.20
2018-07-26T18:30:44.231Z,35.40
2018-07-26T18:38:08.687Z,35.90
2018-07-26T18:40:36.914Z,36.00
2018-07-26T18:43:05.231Z,36.30
2018-07-26T18:45:33.425Z,36.40
2018-07-26T18:48:01.667Z,36.60
2018-07-26T18:50:29.903Z,36.80
2018-07-26T18:52:58.081Z,36.90
2018-07-26T18:55:26.287Z,37.10
2018-07-26T18:57:54.702Z,37.30
2018-07-26T19:00:23.037Z,37.60
2018-07-26T19:02:51.232Z,37.80
2018-07-26T19:05:19.422Z,38.00
2018-07-26T19:07:47.631Z,38.30
2018-07-26T19:12:43.810Z,38.70
2018-07-26T19:15:12.416Z,38.90
2018-07-26T19:17:40.708Z,39.10
2018-07-26T19:20:10.263Z,39.20
2018-07-26T19:25:07.340Z,39.80
2018-07-26T19:30:04.693Z,40.00
2018-07-26T19:32:32.926Z,40.10
2018-07-26T19:35:01.111Z,40.50
2018-07-26T19:37:29.343Z,40.80
2018-07-26T19:39:57.534Z,41.00
2018-07-26T19:42:25.817Z,41.10
2018-07-26T19:44:54.015Z,41.10
2018-07-26T19:47:22.419Z,41.00
2018-07-26T19:49:50.809Z,41.10
2018-07-26T19:52:18.983Z,41.10
2018-07-26T19:54:47.211Z,41.30
2018-07-26T19:57:15.478Z,41.20
2018-07-26T19:59:43.713Z,41.30
2018-07-26T20:02:12.163Z,41.20
2018-07-26T20:04:40.333Z,41.30
2018-07-26T20:07:08.533Z,41.20
2018-07-26T20:12:04.772Z,41.50
2018-07-26T20:14:32.971Z,41.50
2018-07-26T20:19:29.592Z,41.30
2018-07-26T20:21:57.825Z,41.60
2018-07-26T20:24:26.061Z,41.50
2018-07-26T20:26:54.293Z,41.30
2018-07-26T20:29:22.473Z,41.30
2018-07-26T20:31:50.670Z,41.70
2018-07-26T20:34:18.871Z,41.40
2018-07-26T20:36:47.061Z,41.20
2018-07-26T20:39:15.255Z,41.40
2018-07-26T20:41:43.458Z,42.00
2018-07-26T20:44:11.827Z,41.30
2018-07-26T20:51:36.771Z,41.40
2018-07-26T20:56:32.979Z,41.40
2018-07-26T20:59:01.171Z,41.40
2018-07-26T21:01:29.388Z,41.30
2018-07-26T21:06:25.595Z,41.30
2018-07-26T21:08:53.883Z,41.20
2018-07-26T21:11:22.378Z,41.10
2018-07-26T21:13:50.578Z,41.10
2018-07-26T21:16:18.805Z,41.00
2018-07-26T21:18:47.298Z,41.00
2018-07-26T21:21:15.849Z,41.10
2018-07-26T21:23:44.072Z,41.00
2018-07-26T21:26:12.258Z,41.10
2018-07-26T21:28:40.473Z,41.00
2018-07-26T21:31:08.725Z,41.20
2018-07-26T21:33:36.959Z,41.20
2018-07-26T21:36:05.338Z,41.30
2018-07-26T21:41:01.522Z,41.30
2018-07-26T21:43:29.740Z,41.40
2018-07-26T21:45:57.953Z,41.40
2018-07-26T21:48:26.215Z,41.50
2018-07-26T21:50:54.418Z,41.50
2018-07-26T21:53:22.732Z,41.60
2018-07-26T21:55:50.912Z,41.70
2018-07-26T21:58:19.124Z,41.90
2018-07-26T22:00:52.617Z,41.90
2018-07-26T22:03:20.907Z,41.90
2018-07-26T22:05:49.100Z,42.00
2018-07-26T22:08:17.396Z,42.00
2018-07-26T22:10:45.588Z,42.10
2018-07-26T22:13:13.764Z,42.10
2018-07-26T22:18:10.131Z,42.30
2018-07-26T22:20:38.384Z,42.30
2018-07-26T22:23:06.964Z,42.40
2018-07-26T22:25:35.144Z,42.40
2018-07-26T22:28:03.650Z,42.40
2018-07-26T22:30:31.884Z,42.40
2018-07-26T22:33:00.086Z,42.50
2018-07-26T22:35:28.275Z,42.50
2018-07-26T22:37:56.770Z,42.60
2018-07-26T22:40:24.936Z,42.50
2018-07-26T22:42:53.146Z,42.50
2018-07-26T22:45:21.358Z,42.50
2018-07-26T22:47:49.684Z,42.50
2018-07-26T22:50:17.906Z,42.50
2018-07-26T22:52:46.086Z,42.50
2018-07-26T22:55:14.296Z,42.50
2018-07-26T22:57:42.470Z,42.50
2018-07-26T23:00:10.696Z,42.30
2018-07-26T23:02:38.888Z,42.30
2018-07-26T23:05:07.092Z,42.20
2018-07-26T23:07:35.282Z,42.10
2018-07-26T23:10:03.624Z,41.90
2018-07-26T23:12:31.896Z,41.80
2018-07-26T23:15:00.112Z,41.70
2018-07-26T23:17:28.348Z,41.60
2018-07-26T23:19:56.554Z,41.40
2018-07-26T23:22:24.816Z,41.20
2018-07-26T23:24:53.536Z,41.20
2018-07-26T23:27:21.721Z,41.10
2018-07-26T23:29:49.976Z,41.10
2018-07-26T23:32:18.164Z,40.90
2018-07-26T23:34:46.353Z,40.90
2018-07-26T23:37:14.588Z,40.80
2018-07-26T23:39:42.975Z,40.70
2018-07-26T23:42:11.190Z,40.70
2018-07-26T23:44:39.378Z,40.50
2018-07-26T23:47:07.606Z,40.50
2018-07-26T23:49:35.821Z,40.60
2018-07-26T23:52:04.028Z,40.50
2018-07-26T23:54:32.213Z,40.40
2018-07-26T23:57:00.400Z,40.40
2018-07-26T23:59:28.666Z,40.40
